createdAt,value
2022-10-02T00:01:18.141Z,13.21
2022-10-02T00:03:46.966Z,13.28
2022-10-02T00:06:21.367Z,13.20
2022-10-02T00:08:51.993Z,13.16
2022-10-02T00:11:23.223Z,13.38
2022-10-02T00:13:55.766Z,13.28
2022-10-02T00:16:34.687Z,13.24
2022-10-02T00:19:04.131Z,13.19
2022-10-02T00:21:48.985Z,13.33
2022-10-02T00:24:20.276Z,13.34
2022-10-02T00:26:57.152Z,13.38
2022-10-02T00:29:46.916Z,13.25
2022-10-02T00:32:23.615Z,13.25
2022-10-02T00:35:21.655Z,13.21
2022-10-02T00:38:00.155Z,13.16
2022-10-02T00:40:40.933Z,13.20
2022-10-02T00:43:23.565Z,13.05
2022-10-02T00:46:09.438Z,13.16
2022-10-02T00:48:48.655Z,13.23
2022-10-02T00:51:47.722Z,13.28
2022-10-02T00:54:29.179Z,13.25
2022-10-02T00:57:10.167Z,13.21
2022-10-02T00:59:55.487Z,13.25
2022-10-02T01:02:49.134Z,13.18
2022-10-02T01:05:17.641Z,13.19
2022-10-02T01:07:51.201Z,13.11
2022-10-02T01:10:22.272Z,13.20
2022-10-02T01:12:50.711Z,13.05
2022-10-02T01:15:20.589Z,13.12
2022-10-02T01:17:52.062Z,13.32
2022-10-02T01:20:29.990Z,13.22
2022-10-02T01:23:05.878Z,13.15
2022-10-02T01:25:35.137Z,13.13
2022-10-02T01:28:03.369Z,13.08
2022-10-02T01:30:32.735Z,13.18
2022-10-02T01:33:03.397Z,13.27
2022-10-02T01:35:33.594Z,13.10
2022-10-02T01:38:06.443Z,13.13
2022-10-02T01:40:37.279Z,13.20
2022-10-02T01:43:08.606Z,13.26
2022-10-02T01:45:51.643Z,13.22
2022-10-02T01:48:28.283Z,13.27
2022-10-02T01:51:07.881Z,13.23
2022-10-02T01:53:45.795Z,13.46
2022-10-02T01:56:24.051Z,13.31
2022-10-02T01:59:05.598Z,13.46
2022-10-02T02:01:45.157Z,13.37
2022-10-02T02:04:25.957Z,13.47
2022-10-02T02:07:00.325Z,13.29
2022-10-02T02:09:38.907Z,13.40
2022-10-02T02:12:15.733Z,13.38
2022-10-02T02:14:48.877Z,13.30
2022-10-02T02:17:24.899Z,13.35
2022-10-02T02:20:02.233Z,13.37
2022-10-02T02:22:35.191Z,13.55
2022-10-02T02:25:08.902Z,13.43
2022-10-02T02:27:43.105Z,13.57
2022-10-02T02:30:14.789Z,13.47
2022-10-02T02:32:48.119Z,13.57
2022-10-02T02:35:21.677Z,13.64
2022-10-02T02:37:53.088Z,13.60
2022-10-02T02:40:24.117Z,13.59
2022-10-02T02:42:59.819Z,13.52
2022-10-02T02:45:31.385Z,13.62
2022-10-02T02:48:04.530Z,13.65
2022-10-02T02:50:37.303Z,13.69
2022-10-02T02:53:09.937Z,13.61
2022-10-02T02:55:45.030Z,13.74
2022-10-02T02:58:19.870Z,13.77
2022-10-02T03:00:48.043Z,13.69
2022-10-02T03:03:16.171Z,13.71
2022-10-02T03:05:48.218Z,13.64
2022-10-02T03:08:24.237Z,13.63
2022-10-02T03:11:05.294Z,13.62
2022-10-02T03:13:51.085Z,13.62
2022-10-02T03:16:40.188Z,13.58
2022-10-02T03:19:25.425Z,13.56
2022-10-02T03:22:03.619Z,13.56
2022-10-02T03:24:39.639Z,13.71
2022-10-02T03:27:11.902Z,13.71
2022-10-02T03:29:46.275Z,13.50
2022-10-02T03:32:17.114Z,13.55
2022-10-02T03:34:45.523Z,13.62
2022-10-02T03:37:13.830Z,13.68
2022-10-02T03:39:43.620Z,13.66
2022-10-02T03:42:13.715Z,13.72
2022-10-02T03:44:43.959Z,13.53
2022-10-02T03:47:12.342Z,13.59
2022-10-02T03:49:40.700Z,13.85
2022-10-02T03:52:09.004Z,13.60
2022-10-02T03:54:37.743Z,13.68
2022-10-02T03:57:08.574Z,13.79
2022-10-02T03:59:45.725Z,13.68
2022-10-02T04:02:22.222Z,13.88
2022-10-02T04:04:55.474Z,13.71
2022-10-02T04:07:30.323Z,13.62
2022-10-02T04:10:10.882Z,13.60
2022-10-02T04:12:43.198Z,13.68
2022-10-02T04:15:20.779Z,13.57
2022-10-02T04:17:54.692Z,13.60
2022-10-02T04:20:31.670Z,13.68
2022-10-02T04:23:08.038Z,13.57
2022-10-02T04:25:40.738Z,13.56
2022-10-02T04:28:14.548Z,13.88
2022-10-02T04:30:43.853Z,13.71
2022-10-02T04:33:14.471Z,13.68
2022-10-02T04:35:54.022Z,13.76
2022-10-02T04:38:47.197Z,13.69
2022-10-02T04:41:28.714Z,13.78
2022-10-02T04:44:11.064Z,13.62
2022-10-02T04:47:04.488Z,13.70
2022-10-02T04:49:51.454Z,13.71
2022-10-02T04:52:36.809Z,13.78
2022-10-02T04:55:26.174Z,13.66
2022-10-02T04:58:04.807Z,13.65
2022-10-02T05:00:38.065Z,13.78
2022-10-02T05:03:33.587Z,13.74
2022-10-02T05:06:19.495Z,13.67
2022-10-02T05:09:08.439Z,13.61
2022-10-02T05:11:55.305Z,13.63
2022-10-02T05:14:39.695Z,13.62
2022-10-02T05:17:17.995Z,13.90
2022-10-02T05:20:00.226Z,13.84
2022-10-02T05:22:46.830Z,13.72
2022-10-02T05:25:31.550Z,13.58
2022-10-02T05:28:14.121Z,13.54
2022-10-02T05:30:49.767Z,13.70
2022-10-02T05:33:48.103Z,13.75
2022-10-02T05:36:30.403Z,13.62
2022-10-02T05:39:07.639Z,13.60
2022-10-02T05:41:45.271Z,13.60
2022-10-02T05:44:17.627Z,13.59
2022-10-02T05:46:51.405Z,13.51
2022-10-02T05:49:22.034Z,13.62
2022-10-02T05:52:00.122Z,13.41
2022-10-02T05:54:40.887Z,13.47
2022-10-02T05:57:17.752Z,13.54
2022-10-02T05:59:53.450Z,13.53
2022-10-02T06:02:29.623Z,13.72
2022-10-02T06:05:04.263Z,13.74
2022-10-02T06:07:34.911Z,13.66
2022-10-02T06:10:08.182Z,13.65
2022-10-02T06:12:42.151Z,13.80
2022-10-02T06:15:18.836Z,13.79
2022-10-02T06:17:51.798Z,13.95
2022-10-02T06:20:25.146Z,13.91
2022-10-02T06:23:02.632Z,13.85
2022-10-02T06:25:34.904Z,13.68
2022-10-02T06:28:12.262Z,13.63
2022-10-02T06:30:42.832Z,13.73
2022-10-02T06:33:17.806Z,13.68
2022-10-02T06:36:00.341Z,13.61
2022-10-02T06:38:45.118Z,13.73
2022-10-02T06:41:24.984Z,13.80
2022-10-02T06:44:12.648Z,13.73
2022-10-02T06:46:51.700Z,13.84
2022-10-02T06:49:32.569Z,13.91
2022-10-02T06:52:12.494Z,13.81
2022-10-02T06:54:57.215Z,13.99
2022-10-02T06:57:40.901Z,13.99
2022-10-02T07:00:12.431Z,13.92
2022-10-02T07:02:59.846Z,13.87
2022-10-02T07:05:47.174Z,14.15
2022-10-02T07:08:30.177Z,14.13
2022-10-02T07:11:09.847Z,14.18
2022-10-02T07:13:59.287Z,14.22
2022-10-02T07:16:48.126Z,14.29
2022-10-02T07:19:40.791Z,14.41
2022-10-02T07:22:44.095Z,14.58
2022-10-02T07:25:37.859Z,14.41
2022-10-02T07:28:19.874Z,14.65
2022-10-02T07:30:57.596Z,14.57
2022-10-02T07:33:34.731Z,14.71
2022-10-02T07:36:10.506Z,14.79
2022-10-02T07:39:00.881Z,14.64
2022-10-02T07:42:00.597Z,14.94
2022-10-02T07:44:46.374Z,14.86
2022-10-02T07:47:28.771Z,14.95
2022-10-02T07:50:01.963Z,15.02
2022-10-02T07:52:38.006Z,15.18
2022-10-02T07:55:15.766Z,15.19
2022-10-02T07:57:52.719Z,15.27
2022-10-02T08:00:25.243Z,15.46
2022-10-02T08:02:58.178Z,15.54
2022-10-02T08:05:30.916Z,15.62
2022-10-02T08:08:04.849Z,15.75
2022-10-02T08:10:38.148Z,15.92
2022-10-02T08:13:14.998Z,16.09
2022-10-02T08:15:47.177Z,16.25
2022-10-02T08:18:34.346Z,16.18
2022-10-02T08:21:04.630Z,16.41
2022-10-02T08:23:38.879Z,16.52
2022-10-02T08:26:13.512Z,16.65
2022-10-02T08:28:48.506Z,16.48
2022-10-02T08:31:17.547Z,16.51
2022-10-02T08:33:45.990Z,16.56
2022-10-02T08:36:48.095Z,16.18
2022-10-02T08:39:40.702Z,16.30
2022-10-02T08:42:34.856Z,16.49
2022-10-02T08:45:36.335Z,16.22
2022-10-02T08:48:45.383Z,16.12
2022-10-02T08:51:47.238Z,16.32
2022-10-02T08:54:51.872Z,16.46
2022-10-02T08:57:46.119Z,16.34
2022-10-02T09:00:25.359Z,16.91
2022-10-02T09:03:34.888Z,17.07
2022-10-02T09:06:44.267Z,16.99
2022-10-02T09:09:47.697Z,17.86
2022-10-02T09:12:58.363Z,17.79
2022-10-02T09:15:41.806Z,17.67
2022-10-02T09:18:19.051Z,17.18
2022-10-02T09:21:29.410Z,17.16
2022-10-02T09:24:48.447Z,17.83
2022-10-02T09:27:52.813Z,18.00
2022-10-02T09:30:27.985Z,17.64
2022-10-02T09:33:24.157Z,16.96
2022-10-02T09:36:25.548Z,17.26
2022-10-02T09:39:40.927Z,17.04
2022-10-02T09:42:39.686Z,17.51
2022-10-02T09:45:37.070Z,17.77
2022-10-02T09:48:31.505Z,18.19
2022-10-02T09:51:20.770Z,17.93
2022-10-02T09:54:25.309Z,18.18
2022-10-02T09:57:33.362Z,18.07
2022-10-02T10:00:20.766Z,18.56
2022-10-02T10:03:28.314Z,18.73
2022-10-02T10:06:27.269Z,18.41
2022-10-02T10:09:40.680Z,18.97
2022-10-02T10:12:50.397Z,19.06
2022-10-02T10:16:05.960Z,19.00
2022-10-02T10:19:02.959Z,18.63
2022-10-02T10:21:56.316Z,18.48
2022-10-02T10:24:46.672Z,18.74
2022-10-02T10:27:49.336Z,18.57
2022-10-02T10:30:38.025Z,18.69
2022-10-02T10:33:39.973Z,19.23
2022-10-02T10:37:11.623Z,19.52
2022-10-02T10:40:08.769Z,19.12
2022-10-02T10:43:14.375Z,19.14
2022-10-02T10:46:02.752Z,18.71
2022-10-02T10:48:36.214Z,19.00
2022-10-02T10:51:19.633Z,19.02
2022-10-02T10:54:10.306Z,18.80
2022-10-02T10:56:42.713Z,18.77
2022-10-02T10:59:38.001Z,18.66
2022-10-02T11:02:36.282Z,18.90
2022-10-02T11:05:18.772Z,19.04
2022-10-02T11:08:07.322Z,19.43
2022-10-02T11:10:47.438Z,19.64
2022-10-02T11:13:33.450Z,19.19
2022-10-02T11:16:30.698Z,19.30
2022-10-02T11:19:37.827Z,19.58
2022-10-02T11:22:30.040Z,19.68
2022-10-02T11:25:13.382Z,19.71
2022-10-02T11:28:13.331Z,19.48
2022-10-02T11:30:54.901Z,19.44
2022-10-02T11:33:41.671Z,19.45
2022-10-02T11:36:29.822Z,19.32
2022-10-02T11:39:15.515Z,19.49
2022-10-02T11:42:21.595Z,19.15
2022-10-02T11:45:09.545Z,19.16
2022-10-02T11:47:57.366Z,19.28
2022-10-02T11:50:42.447Z,19.63
2022-10-02T11:53:37.888Z,20.03
2022-10-02T11:56:26.815Z,19.85
2022-10-02T11:59:07.297Z,19.86
2022-10-02T12:01:43.067Z,19.64
2022-10-02T12:04:27.829Z,19.95
2022-10-02T12:07:22.873Z,19.80
2022-10-02T12:10:03.664Z,19.78
2022-10-02T12:12:42.074Z,20.21
2022-10-02T12:15:22.020Z,20.62
2022-10-02T12:18:07.949Z,20.66
2022-10-02T12:21:14.188Z,20.32
2022-10-02T12:24:08.583Z,20.59
2022-10-02T12:27:00.196Z,20.11
2022-10-02T12:29:41.002Z,20.09
2022-10-02T12:32:22.873Z,19.86
2022-10-02T12:35:03.671Z,19.47
2022-10-02T12:37:38.725Z,19.68
2022-10-02T12:40:18.268Z,19.74
2022-10-02T12:43:27.838Z,19.62
2022-10-02T12:46:27.893Z,19.31
2022-10-02T12:49:20.120Z,18.51
2022-10-02T12:52:14.158Z,18.74
2022-10-02T12:55:13.415Z,18.41
2022-10-02T12:57:56.783Z,18.46
2022-10-02T13:00:29.207Z,18.43
2022-10-02T13:03:31.930Z,18.42
2022-10-02T13:06:26.762Z,18.50
2022-10-02T13:09:16.842Z,18.28
2022-10-02T13:12:00.193Z,18.28
2022-10-02T13:15:02.885Z,18.40
2022-10-02T13:17:39.437Z,18.12
2022-10-02T13:20:17.903Z,17.96
2022-10-02T13:22:55.488Z,17.89
2022-10-02T13:25:37.216Z,17.74
2022-10-02T13:28:23.266Z,17.63
2022-10-02T13:31:02.555Z,17.52
2022-10-02T13:33:52.854Z,17.68
2022-10-02T13:36:25.841Z,17.82
2022-10-02T13:39:20.683Z,17.83
2022-10-02T13:42:03.545Z,18.19
2022-10-02T13:44:38.714Z,18.22
2022-10-02T13:47:25.858Z,18.24
2022-10-02T13:50:16.766Z,18.62
2022-10-02T13:52:59.885Z,18.30
2022-10-02T13:55:30.089Z,17.98
2022-10-02T13:58:29.769Z,17.79
2022-10-02T14:01:08.427Z,17.45
2022-10-02T14:03:50.521Z,17.12
2022-10-02T14:06:25.536Z,16.53
2022-10-02T14:09:23.739Z,16.57
2022-10-02T14:12:09.406Z,16.56
2022-10-02T14:14:55.509Z,16.98
2022-10-02T14:17:35.162Z,16.92
2022-10-02T14:20:23.493Z,16.99
2022-10-02T14:23:08.781Z,16.82
2022-10-02T14:25:46.099Z,16.80
2022-10-02T14:28:28.485Z,16.74
2022-10-02T14:31:08.866Z,16.61
2022-10-02T14:34:06.991Z,16.51
2022-10-02T14:36:47.287Z,16.44
2022-10-02T14:39:27.130Z,16.23
2022-10-02T14:42:18.462Z,16.13
2022-10-02T14:45:07.666Z,16.04
2022-10-02T14:47:51.155Z,16.08
2022-10-02T14:50:34.102Z,16.06
2022-10-02T14:53:16.582Z,16.01
2022-10-02T14:56:01.909Z,16.04
2022-10-02T14:58:47.027Z,16.08
2022-10-02T15:01:22.334Z,16.06
2022-10-02T15:04:06.955Z,16.04
2022-10-02T15:06:52.081Z,16.06
2022-10-02T15:09:26.126Z,16.00
2022-10-02T15:12:03.061Z,15.98
2022-10-02T15:14:41.199Z,15.95
2022-10-02T15:17:32.809Z,15.93
2022-10-02T15:20:07.342Z,15.86
2022-10-02T15:22:41.171Z,15.83
2022-10-02T15:25:18.085Z,15.76
2022-10-02T15:27:53.543Z,15.74
2022-10-02T15:30:23.398Z,15.69
2022-10-02T15:33:16.280Z,15.66
2022-10-02T15:36:24.578Z,15.66
2022-10-02T15:39:13.704Z,15.67
2022-10-02T15:41:47.972Z,15.60
2022-10-02T15:44:34.269Z,15.56
2022-10-02T15:47:13.303Z,15.60
2022-10-02T15:49:59.506Z,15.59
2022-10-02T15:52:37.765Z,15.45
2022-10-02T15:55:19.490Z,15.43
2022-10-02T15:58:05.450Z,15.41
2022-10-02T16:01:00.805Z,15.45
2022-10-02T16:03:34.862Z,15.44
2022-10-02T16:06:13.915Z,15.43
2022-10-02T16:09:01.521Z,15.42
2022-10-02T16:11:53.737Z,15.35
2022-10-02T16:14:32.636Z,15.29
2022-10-02T16:17:16.834Z,15.27
2022-10-02T16:20:04.158Z,15.18
2022-10-02T16:22:45.201Z,15.15
2022-10-02T16:25:28.918Z,15.16
2022-10-02T16:28:09.080Z,15.11
2022-10-02T16:30:58.819Z,15.06
2022-10-02T16:33:33.752Z,15.03
2022-10-02T16:36:29.900Z,15.04
2022-10-02T16:39:14.875Z,15.07
2022-10-02T16:41:59.757Z,15.05
2022-10-02T16:44:45.863Z,15.06
2022-10-02T16:47:25.602Z,15.11
2022-10-02T16:50:01.091Z,15.07
2022-10-02T16:52:34.526Z,15.07
2022-10-02T16:55:12.983Z,15.06
2022-10-02T16:57:54.991Z,15.04
2022-10-02T17:00:32.174Z,15.04
2022-10-02T17:03:10.008Z,15.04
2022-10-02T17:05:46.195Z,15.02
2022-10-02T17:08:23.939Z,14.84
2022-10-02T17:11:05.757Z,14.86
2022-10-02T17:13:43.228Z,14.95
2022-10-02T17:16:20.959Z,14.92
2022-10-02T17:18:55.723Z,14.92
2022-10-02T17:21:29.781Z,14.40
2022-10-02T17:24:22.841Z,14.31
2022-10-02T17:27:01.950Z,14.26
2022-10-02T17:29:39.195Z,14.14
2022-10-02T17:32:10.075Z,14.21
2022-10-02T17:34:49.638Z,14.29
2022-10-02T17:37:57.017Z,14.37
2022-10-02T17:40:29.015Z,14.31
2022-10-02T17:43:03.777Z,14.31
2022-10-02T17:45:38.874Z,14.20
2022-10-02T17:48:26.570Z,14.16
2022-10-02T17:51:51.168Z,14.27
2022-10-02T17:54:58.071Z,14.27
2022-10-02T17:57:38.655Z,14.38
2022-10-02T18:00:14.968Z,14.38
2022-10-02T18:03:00.957Z,14.47
2022-10-02T18:05:39.542Z,14.49
2022-10-02T18:08:26.433Z,14.48
2022-10-02T18:11:04.407Z,14.47
2022-10-02T18:13:57.288Z,14.49
2022-10-02T18:16:37.969Z,14.49
2022-10-02T18:19:24.883Z,14.50
2022-10-02T18:22:21.384Z,14.51
2022-10-02T18:25:16.740Z,14.54
2022-10-02T18:28:02.439Z,14.55
2022-10-02T18:30:40.054Z,14.57
2022-10-02T18:33:34.507Z,14.55
2022-10-02T18:36:24.889Z,14.54
2022-10-02T18:39:00.324Z,14.54
2022-10-02T18:41:59.038Z,14.51
2022-10-02T18:44:42.875Z,14.50
2022-10-02T18:47:20.234Z,14.47
2022-10-02T18:50:23.599Z,14.42
2022-10-02T18:53:15.669Z,14.40
2022-10-02T18:56:06.093Z,14.23
2022-10-02T18:58:50.817Z,14.31
2022-10-02T19:01:46.851Z,14.20
2022-10-02T19:04:41.269Z,14.24
2022-10-02T19:07:16.955Z,14.18
2022-10-02T19:09:44.643Z,14.17
2022-10-02T19:12:18.535Z,14.15
2022-10-02T19:14:47.644Z,14.03
2022-10-02T19:17:18.811Z,14.01
2022-10-02T19:19:46.517Z,14.13
2022-10-02T19:22:21.554Z,14.06
2022-10-02T19:24:52.630Z,14.22
2022-10-02T19:27:27.038Z,14.28
2022-10-02T19:29:59.061Z,14.30
2022-10-02T19:32:31.531Z,14.29
2022-10-02T19:35:03.873Z,14.33
2022-10-02T19:37:32.804Z,14.06
2022-10-02T19:40:03.031Z,14.08
2022-10-02T19:42:37.351Z,14.19
2022-10-02T19:45:09.677Z,14.24
2022-10-02T19:47:43.076Z,14.30
2022-10-02T19:50:19.896Z,14.39
2022-10-02T19:52:54.140Z,14.39
2022-10-02T19:55:25.006Z,14.33
2022-10-02T19:57:56.239Z,14.30
2022-10-02T20:00:25.465Z,14.34
2022-10-02T20:02:57.286Z,14.35
2022-10-02T20:05:26.612Z,14.34
2022-10-02T20:08:03.019Z,14.36
2022-10-02T20:10:38.157Z,14.36
2022-10-02T20:13:14.519Z,14.36
2022-10-02T20:16:06.518Z,14.35
2022-10-02T20:18:35.003Z,13.98
2022-10-02T20:21:08.207Z,14.29
2022-10-02T20:23:41.519Z,14.30
2022-10-02T20:26:14.681Z,14.22
2022-10-02T20:28:46.202Z,14.21
2022-10-02T20:31:21.085Z,14.24
2022-10-02T20:33:53.653Z,14.30
2022-10-02T20:36:26.084Z,14.26
2022-10-02T20:39:00.350Z,14.29
2022-10-02T20:41:34.067Z,14.36
2022-10-02T20:44:04.791Z,14.21
2022-10-02T20:47:08.239Z,14.16
2022-10-02T20:50:16.827Z,14.18
2022-10-02T20:53:06.965Z,14.17
2022-10-02T20:55:42.362Z,14.20
2022-10-02T20:58:36.174Z,14.17
2022-10-02T21:01:18.506Z,14.15
2022-10-02T21:04:10.548Z,14.29
2022-10-02T21:07:07.766Z,14.13
2022-10-02T21:10:08.450Z,14.15
2022-10-02T21:13:02.972Z,14.17
2022-10-02T21:15:47.755Z,14.16
2022-10-02T21:18:44.002Z,14.15
2022-10-02T21:21:40.772Z,14.23
2022-10-02T21:24:30.395Z,14.22
2022-10-02T21:27:27.706Z,14.22
2022-10-02T21:30:04.340Z,14.20
2022-10-02T21:32:51.178Z,14.16
2022-10-02T21:35:37.159Z,14.16
2022-10-02T21:38:35.236Z,14.14
2022-10-02T21:41:53.775Z,14.14
2022-10-02T21:45:00.385Z,14.18
2022-10-02T21:47:55.258Z,14.18
2022-10-02T21:51:01.509Z,14.13
2022-10-02T21:54:01.951Z,13.83
2022-10-02T21:57:05.503Z,13.84
2022-10-02T22:00:16.647Z,13.86
2022-10-02T22:03:15.195Z,13.81
2022-10-02T22:06:16.372Z,13.85
2022-10-02T22:08:59.265Z,14.02
2022-10-02T22:11:38.736Z,13.98
2022-10-02T22:14:11.929Z,13.94
2022-10-02T22:16:50.799Z,13.99
2022-10-02T22:19:34.502Z,14.06
2022-10-02T22:22:14.772Z,13.97
2022-10-02T22:24:58.383Z,13.99
2022-10-02T22:27:48.068Z,13.97
2022-10-02T22:30:25.381Z,13.98
2022-10-02T22:33:14.013Z,13.85
2022-10-02T22:36:05.123Z,13.89
2022-10-02T22:38:36.838Z,13.78
2022-10-02T22:41:09.790Z,13.76
2022-10-02T22:43:49.385Z,13.78
2022-10-02T22:46:25.639Z,13.76
2022-10-02T22:49:02.052Z,13.78
2022-10-02T22:51:39.227Z,13.69
2022-10-02T22:54:19.193Z,13.77
2022-10-02T22:56:57.933Z,13.85
2022-10-02T22:59:31.076Z,13.68
2022-10-02T23:02:07.760Z,13.71
2022-10-02T23:04:40.248Z,13.66
2022-10-02T23:07:16.358Z,13.66
2022-10-02T23:09:50.731Z,13.56
2022-10-02T23:12:28.127Z,13.50
2022-10-02T23:15:11.918Z,13.52
2022-10-02T23:17:47.237Z,13.49
2022-10-02T23:20:19.842Z,13.48
2022-10-02T23:22:57.074Z,13.45
2022-10-02T23:25:32.027Z,13.43
2022-10-02T23:28:06.080Z,13.37
2022-10-02T23:30:39.582Z,13.37
2022-10-02T23:33:21.853Z,13.18
2022-10-02T23:35:55.063Z,13.05
2022-10-02T23:38:32.377Z,12.98
2022-10-02T23:41:23.391Z,12.92
2022-10-02T23:44:02.005Z,12.92
2022-10-02T23:46:36.589Z,12.88
2022-10-02T23:49:05.377Z,12.76
2022-10-02T23:51:46.164Z,12.76
2022-10-02T23:54:31.547Z,12.59
2022-10-02T23:57:29.980Z,12.50
